Time;durP1;ratioP1;P1;durP2;ratioP2;P2;SDS_P1;SDS_P2;PMS_P1;PMS_P2;Temp;Humidity;BMP_temperature;BMP_pressure;BME280_temperature;BME280_humidity;BME280_pressure;Samples;Min_cycle;Max_cycle;Signal;HPM_P1;HPM_P2
2022/12/03 00:02:05;;;;;;;2.75;1.98;;;;;;;16.74;35.24;102563.78;4947735;28;20034;-91
2022/12/03 00:04:31;;;;;;;2.78;2.10;;;;;;;16.76;35.33;102569.84;4968926;28;20032;-90
2022/12/03 00:06:57;;;;;;;3.55;2.17;;;;;;;16.74;35.18;102566.47;4950235;28;20108;-90
2022/12/03 00:09:23;;;;;;;3.03;2.13;;;;;;;16.75;35.31;102565.44;4964287;28;20373;-91
2022/12/03 00:11:48;;;;;;;2.95;1.90;;;;;;;16.74;35.34;102567.31;4943195;28;20109;-91
2022/12/03 00:14:14;;;;;;;3.88;2.55;;;;;;;16.75;35.34;102573.53;4964239;28;20030;-90
2022/12/03 00:16:40;;;;;;;2.80;2.03;;;;;;;16.75;35.20;102569.00;4967615;28;20596;-90
2022/12/03 00:19:06;;;;;;;2.45;2.13;;;;;;;16.75;35.03;102579.81;4961054;28;20045;-90
2022/12/03 00:21:32;;;;;;;2.65;2.05;;;;;;;16.73;35.40;102576.44;4951777;28;20026;-91
2022/12/03 00:23:58;;;;;;;2.97;2.15;;;;;;;16.74;35.32;102571.88;4967134;28;20040;-91
2022/12/03 00:26:24;;;;;;;4.38;2.28;;;;;;;16.72;35.14;102572.03;4994396;28;20022;-90
2022/12/03 00:28:49;;;;;;;3.55;2.50;;;;;;;16.75;35.23;102573.53;4947767;28;20096;-91
2022/12/03 00:31:15;;;;;;;2.60;2.08;;;;;;;16.75;35.21;102578.94;4951214;28;20022;-90
2022/12/03 00:33:41;;;;;;;2.85;2.20;;;;;;;16.75;35.38;102577.09;4985677;28;20117;-90
2022/12/03 00:36:07;;;;;;;2.67;2.20;;;;;;;16.75;35.25;102568.13;4965125;28;20629;-91
2022/12/03 00:38:32;;;;;;;3.38;2.38;;;;;;;16.74;35.17;102569.16;4968457;28;20026;-90
2022/12/03 00:40:58;;;;;;;2.75;2.13;;;;;;;16.75;35.11;102576.25;4968085;28;20554;-90
2022/12/03 00:43:23;;;;;;;2.78;2.25;;;;;;;16.74;35.25;102569.16;4966528;28;20121;-90
2022/12/03 00:45:49;;;;;;;2.58;2.00;;;;;;;16.71;35.14;102563.13;4985205;28;20025;-90
2022/12/03 00:48:18;;;;;;;2.58;2.00;;;;;;;16.69;35.18;102559.75;4966262;28;20036;-90
2022/12/03 00:50:43;;;;;;;2.83;2.28;;;;;;;16.73;35.24;102559.38;4958970;28;20077;-91
2022/12/03 00:53:09;;;;;;;2.85;2.30;;;;;;;16.70;35.25;102556.03;4964404;28;20474;-90
2022/12/03 00:55:41;;;;;;;3.80;2.13;;;;;;;16.76;35.15;102559.03;4983323;28;20025;-90
2022/12/03 00:58:09;;;;;;;2.50;1.98;;;;;;;16.70;35.20;102553.31;4979824;28;20026;-91
2022/12/03 01:00:38;;;;;;;3.60;2.40;;;;;;;16.74;35.43;102561.06;4989491;28;20142;-90
2022/12/03 01:03:03;;;;;;;2.88;2.05;;;;;;;16.74;35.25;102556.50;4952719;28;20095;-90
2022/12/03 01:05:29;;;;;;;3.33;2.13;;;;;;;16.73;35.25;102553.97;4982808;28;20030;-90
2022/12/03 01:07:54;;;;;;;2.95;2.28;;;;;;;16.74;35.20;102556.50;4966055;28;20424;-90
2022/12/03 01:10:20;;;;;;;2.72;2.30;;;;;;;16.74;35.20;102558.38;4968093;28;20034;-90
2022/12/03 01:12:52;;;;;;;3.28;2.13;;;;;;;16.74;35.33;102556.50;4981457;28;20112;-90
2022/12/03 01:15:18;;;;;;;3.88;2.38;;;;;;;16.74;35.16;102561.06;4946209;28;20034;-90
2022/12/03 01:17:46;;;;;;;3.08;2.30;;;;;;;16.74;35.20;102561.06;4948714;28;20444;-91
2022/12/03 01:20:15;;;;;;;3.10;2.15;;;;;;;16.73;35.18;102554.84;4964027;28;20092;-90
2022/12/03 01:22:54;;;;;;;3.22;2.45;;;;;;;16.70;35.20;102537.13;4951102;28;20161;-90
2022/12/03 01:25:25;;;;;;;2.80;2.10;;;;;;;16.74;35.24;102542.19;4980726;28;20086;-90
2022/12/03 01:27:51;;;;;;;2.83;2.20;;;;;;;16.71;35.20;102541.50;4960188;28;20031;-90
2022/12/03 01:30:16;;;;;;;3.13;2.20;;;;;;;16.75;35.30;102541.13;4948651;28;20473;-91
2022/12/03 01:32:42;;;;;;;3.17;2.20;;;;;;;16.74;35.25;102542.19;4948211;28;20037;-90
2022/12/03 01:35:08;;;;;;;2.55;2.28;;;;;;;16.74;35.28;102544.88;4944944;28;20534;-91
2022/12/03 01:37:39;;;;;;;2.90;2.10;;;;;;;16.73;34.91;102540.47;4947591;28;20442;-91
2022/12/03 01:40:06;;;;;;;3.28;2.20;;;;;;;16.74;35.17;102540.31;4965581;28;20722;-91
2022/12/03 01:42:33;;;;;;;2.78;2.38;;;;;;;16.75;35.20;102541.13;4948518;28;20065;-90
2022/12/03 01:44:59;;;;;;;3.55;2.40;;;;;;;16.73;35.19;102538.66;4943844;28;20015;-91
2022/12/03 01:47:31;;;;;;;3.17;2.47;;;;;;;16.73;35.28;102535.06;4964353;28;20056;-91
2022/12/03 01:50:13;;;;;;;3.67;2.33;;;;;;;16.76;35.31;102532.03;4961635;28;20041;-90
2022/12/03 01:52:38;;;;;;;3.30;2.47;;;;;;;16.75;35.21;102542.00;4966640;28;20053;-91
2022/12/03 01:55:06;;;;;;;4.68;2.50;;;;;;;16.74;35.17;102539.47;4950473;28;20030;-91
2022/12/03 01:57:49;;;;;;;3.60;2.22;;;;;;;16.74;35.12;102539.47;4983311;28;20493;-90
2022/12/03 02:00:22;;;;;;;2.63;2.30;;;;;;;16.73;35.16;102532.38;4965450;28;20053;-91
2022/12/03 02:02:49;;;;;;;3.38;2.70;;;;;;;16.75;35.27;102543.84;4965190;28;20528;-90
2022/12/03 02:05:18;;;;;;;3.13;2.25;;;;;;;16.74;35.31;102534.06;4967075;28;20022;-90
2022/12/03 02:07:46;;;;;;;3.20;2.38;;;;;;;16.74;35.23;102539.47;4950937;28;20505;-91
2022/12/03 02:10:13;;;;;;;4.78;2.55;;;;;;;16.75;35.11;102542.00;4950569;28;20038;-91
2022/12/03 02:12:46;;;;;;;3.55;2.50;;;;;;;16.75;35.23;102550.09;4984021;28;20511;-90
2022/12/03 02:15:11;;;;;;;3.08;2.33;;;;;;;16.74;35.17;102550.28;4948795;28;20034;-91
2022/12/03 02:17:37;;;;;;;2.97;2.60;;;;;;;16.74;35.11;102539.47;4948008;28;20113;-91
2022/12/03 02:20:04;;;;;;;2.92;2.25;;;;;;;16.74;35.35;102540.31;4952256;28;20083;-91
2022/12/03 02:22:55;;;;;;;3.35;2.60;;;;;;;16.76;35.11;102543.66;4949925;28;20029;-91
2022/12/03 02:25:30;;;;;;;3.78;2.42;;;;;;;16.72;35.13;102528.84;4979960;28;20153;-90
2022/12/03 02:27:59;;;;;;;3.50;2.55;;;;;;;16.73;35.07;102535.06;4950927;28;20026;-90
2022/12/03 02:30:26;;;;;;;3.97;2.85;;;;;;;16.71;35.19;102530.72;4952993;28;20029;-91
2022/12/03 02:32:52;;;;;;;7.22;2.78;;;;;;;16.73;35.20;102526.97;4968776;28;20033;-90
2022/12/03 02:35:22;;;;;;;3.08;2.38;;;;;;;16.74;35.28;102531.38;4951514;28;20089;-90
2022/12/03 02:38:19;;;;;;;2.80;2.40;;;;;;;16.76;35.24;102524.75;4968903;28;20266;-90
2022/12/03 02:40:45;;;;;;;5.03;2.50;;;;;;;16.72;35.39;102520.75;4956476;28;20053;-90
2022/12/03 02:43:11;;;;;;;2.75;2.13;;;;;;;16.74;35.33;102525.97;4967474;28;20532;-90
2022/12/03 02:45:44;;;;;;;3.83;2.65;;;;;;;16.75;35.21;102523.09;4968089;28;20081;-90
2022/12/03 02:48:31;;;;;;;3.75;2.63;;;;;;;16.75;35.17;102524.94;4955826;28;20254;-90
2022/12/03 02:50:58;;;;;;;2.72;2.30;;;;;;;16.73;35.19;102513.47;4968964;28;20046;-91
2022/12/03 02:53:32;;;;;;;3.90;2.60;;;;;;;16.68;35.07;102509.47;4958400;28;20030;-91
2022/12/03 02:55:59;;;;;;;2.70;2.25;;;;;;;16.76;35.19;102507.72;4952994;28;20051;-91
2022/12/03 02:58:24;;;;;;;3.25;2.50;;;;;;;16.76;35.23;102511.25;4969089;28;20037;-91
2022/12/03 03:00:50;;;;;;;3.80;2.78;;;;;;;16.71;35.04;102503.72;4950919;28;20132;-91
2022/12/03 03:03:16;;;;;;;2.95;2.30;;;;;;;16.73;35.26;102508.06;4967358;28;20026;-91
2022/12/03 03:05:42;;;;;;;3.30;2.40;;;;;;;16.75;35.25;102506.03;4950011;28;20050;-90
2022/12/03 03:08:07;;;;;;;5.65;2.92;;;;;;;16.74;34.96;102515.16;4967983;28;20042;-90
2022/12/03 03:10:33;;;;;;;4.55;2.85;;;;;;;16.75;35.19;102515.00;4940385;28;20063;-90
2022/12/03 03:12:58;;;;;;;3.67;2.70;;;;;;;16.75;35.17;102519.53;4951378;28;20161;-90
2022/12/03 03:15:30;;;;;;;4.45;2.70;;;;;;;16.74;35.13;102507.06;4968463;28;20031;-91
2022/12/03 03:17:59;;;;;;;2.80;2.35;;;;;;;16.69;35.04;102513.84;4967191;28;20371;-90
2022/12/03 03:20:25;;;;;;;3.83;2.78;;;;;;;16.76;35.15;102521.22;4966273;28;20121;-90
2022/12/03 03:22:50;;;;;;;4.15;3.10;;;;;;;16.75;35.27;102509.59;4952036;28;20553;-90
2022/12/03 03:25:17;;;;;;;4.10;2.38;;;;;;;16.73;34.90;102506.25;4951602;28;20037;-91
2022/12/03 03:27:43;;;;;;;3.53;2.70;;;;;;;16.75;34.90;102497.94;4951338;28;20030;-91
2022/12/03 03:30:09;;;;;;;4.25;2.70;;;;;;;16.76;35.07;102505.03;4952345;28;20397;-91
2022/12/03 03:32:35;;;;;;;4.13;2.67;;;;;;;16.76;35.02;102515.84;4963872;28;20034;-90
2022/12/03 03:35:04;;;;;;;3.25;2.53;;;;;;;16.77;35.17;102522.94;4952058;28;20062;-91
2022/12/03 03:37:30;;;;;;;3.42;2.35;;;;;;;16.77;35.02;102522.94;4949157;28;20482;-90
2022/12/03 03:39:56;;;;;;;3.58;2.70;;;;;;;16.73;35.05;102511.63;4957789;28;20054;-91
2022/12/03 03:42:21;;;;;;;5.65;2.92;;;;;;;16.77;35.11;102522.94;4949919;28;20045;-91
2022/12/03 03:44:48;;;;;;;3.58;2.40;;;;;;;16.77;35.09;102522.94;4966592;28;20050;-91
2022/12/03 03:47:14;;;;;;;3.60;2.80;;;;;;;16.71;35.09;102509.13;4955051;28;20018;-90
2022/12/03 03:49:39;;;;;;;3.28;2.55;;;;;;;16.74;35.03;102513.31;4965574;28;20563;-91
2022/12/03 03:52:05;;;;;;;2.65;2.10;;;;;;;16.76;35.10;102515.84;4955735;28;20090;-90
2022/12/03 03:54:31;;;;;;;3.50;2.83;;;;;;;16.78;35.02;102511.09;4950649;28;20027;-91
2022/12/03 03:56:56;;;;;;;3.78;2.53;;;;;;;16.78;35.03;102508.38;4964246;28;20026;-90
2022/12/03 03:59:22;;;;;;;3.65;2.70;;;;;;;16.76;35.08;102513.13;4958611;28;20430;-90
2022/12/03 04:01:48;;;;;;;3.38;2.60;;;;;;;16.76;35.12;102505.88;4951345;28;20061;-90
2022/12/03 04:04:21;;;;;;;3.42;2.72;;;;;;;16.78;34.92;102513.78;4961301;28;20085;-90
2022/12/03 04:06:47;;;;;;;3.22;2.40;;;;;;;16.74;35.04;102496.28;4951265;28;20995;-90
2022/12/03 04:09:13;;;;;;;3.17;2.50;;;;;;;16.77;35.01;102510.25;4964765;28;20472;-91
2022/12/03 04:14:22;;;;;;;3.53;2.55;;;;;;;16.74;35.05;102494.41;4974032;28;20097;-90
2022/12/03 04:16:48;;;;;;;3.67;2.80;;;;;;;16.75;35.07;102504.19;4948846;28;20038;-91
2022/12/03 04:19:13;;;;;;;4.07;3.00;;;;;;;16.76;34.94;102496.94;4956890;28;20036;-91
2022/12/03 04:24:23;;;;;;;3.35;2.55;;;;;;;16.78;34.96;102500.28;4966793;28;20042;-90
2022/12/03 04:29:33;;;;;;;3.42;2.47;;;;;;;16.76;34.96;102488.81;4960066;28;20038;-91
2022/12/03 04:37:26;;;;;;;3.25;2.38;;;;;;;16.76;35.05;102488.81;4965206;28;20135;-91
2022/12/03 04:39:52;;;;;;;2.97;2.17;;;;;;;16.77;34.89;102485.97;4967651;28;20018;-91
2022/12/03 04:42:18;;;;;;;3.38;2.45;;;;;;;16.76;34.88;102486.13;4956954;28;20064;-91
2022/12/03 04:44:43;;;;;;;4.38;2.70;;;;;;;16.78;35.11;102489.50;4974069;28;20027;-91
2022/12/03 04:47:19;;;;;;;3.47;2.58;;;;;;;16.79;34.76;102488.47;4965183;28;20030;-91
2022/12/03 04:49:47;;;;;;;3.42;2.70;;;;;;;16.77;35.11;102485.13;4965181;28;20026;-90
2022/12/03 04:52:13;;;;;;;2.70;2.40;;;;;;;16.77;34.93;102477.03;4950739;28;20152;-91
2022/12/03 04:54:39;;;;;;;4.05;2.70;;;;;;;16.76;34.99;102478.03;4950868;28;20510;-91
2022/12/03 04:57:05;;;;;;;3.60;2.47;;;;;;;16.76;35.09;102465.34;4948550;28;20168;-91
2022/12/03 04:59:31;;;;;;;3.22;2.70;;;;;;;16.78;34.95;102471.44;4948931;28;20088;-91
2022/12/03 05:01:56;;;;;;;4.82;2.60;;;;;;;16.74;35.16;102471.97;4964352;28;20121;-91
2022/12/03 05:04:22;;;;;;;3.20;2.40;;;;;;;16.78;35.06;102467.88;4962566;28;20038;-91
2022/12/03 05:06:48;;;;;;;4.05;2.80;;;;;;;16.77;35.17;102463.53;4964364;28;20073;-91
2022/12/03 05:09:13;;;;;;;3.42;2.53;;;;;;;16.78;34.97;102454.38;4955299;28;20549;-91
2022/12/03 05:11:39;;;;;;;3.35;2.60;;;;;;;16.78;34.89;102459.78;4950432;28;20101;-91
2022/12/03 05:14:05;;;;;;;3.10;2.63;;;;;;;16.77;34.88;102461.66;4949100;28;20037;-90
2022/12/03 05:16:31;;;;;;;4.40;2.80;;;;;;;16.77;34.97;102463.53;4962972;28;20072;-91
2022/12/03 05:18:56;;;;;;;3.78;2.78;;;;;;;16.77;34.97;102458.94;4965808;28;20504;-91
2022/12/03 05:21:22;;;;;;;3.83;2.33;;;;;;;16.71;35.04;102455.13;4946628;28;20413;-90
2022/12/03 05:23:48;;;;;;;5.22;2.92;;;;;;;16.76;34.90;102451.03;4969215;28;20082;-90
2022/12/03 05:26:13;;;;;;;3.92;2.60;;;;;;;16.80;34.85;102457.75;4949430;28;20113;-90
2022/12/03 05:28:39;;;;;;;2.88;2.20;;;;;;;16.79;34.94;102453.38;4950287;28;20022;-91
2022/12/03 05:31:05;;;;;;;3.22;2.50;;;;;;;16.77;34.92;102458.94;4976893;28;20066;-91
2022/12/03 05:33:31;;;;;;;3.17;2.80;;;;;;;16.79;34.83;102458.78;4958039;28;20401;-91
2022/12/03 05:35:56;;;;;;;3.50;2.55;;;;;;;16.79;35.08;102456.06;4958159;28;20034;-91
2022/12/03 05:38:22;;;;;;;5.00;2.97;;;;;;;16.80;34.95;102455.03;4952922;28;20039;-90
2022/12/03 05:40:47;;;;;;;4.55;2.72;;;;;;;16.78;34.87;102451.69;4957302;28;20085;-90
2022/12/03 05:43:13;;;;;;;3.28;2.67;;;;;;;16.79;34.88;102458.78;4948216;28;20049;-91
2022/12/03 05:45:39;;;;;;;3.05;2.33;;;;;;;16.77;34.88;102467.06;4965535;28;20062;-91
2022/12/03 05:48:07;;;;;;;3.38;2.50;;;;;;;16.80;34.97;102466.72;4957678;28;20022;-90
2022/12/03 05:50:34;;;;;;;4.07;3.03;;;;;;;16.77;34.95;102453.56;4957616;28;20031;-91
2022/12/03 05:53:02;;;;;;;3.70;2.63;;;;;;;16.80;34.90;102463.13;4969479;28;20057;-91
2022/12/03 05:55:27;;;;;;;4.45;2.95;;;;;;;16.80;34.92;102452.34;4967820;28;20370;-90
2022/12/03 05:57:53;;;;;;;3.15;2.33;;;;;;;16.78;35.08;102452.53;4967076;28;20062;-90
2022/12/03 06:00:24;;;;;;;4.22;2.63;;;;;;;16.76;34.94;102451.03;4965269;28;20450;-91
2022/12/03 06:02:50;;;;;;;2.75;2.35;;;;;;;16.76;34.91;102441.06;4949577;28;20054;-91
2022/12/03 06:05:18;;;;;;;3.85;2.40;;;;;;;16.74;34.89;102451.19;4964831;28;20061;-91
2022/12/03 06:07:44;;;;;;;3.95;2.75;;;;;;;16.79;35.13;102447.97;4953350;28;20626;-90
2022/12/03 06:10:11;;;;;;;4.03;2.80;;;;;;;16.76;34.87;102446.47;4950139;28;20084;-90
2022/12/03 06:12:36;;;;;;;5.93;2.80;;;;;;;16.77;34.77;102452.72;4950782;28;20029;-91
2022/12/03 06:15:02;;;;;;;3.50;2.70;;;;;;;16.79;34.84;102458.78;4972120;28;20099;-90
2022/12/03 06:17:28;;;;;;;2.85;2.40;;;;;;;16.78;35.03;102448.97;4954641;28;20547;-91
2022/12/03 06:19:54;;;;;;;3.40;2.63;;;;;;;16.79;34.87;102456.06;4971040;28;20034;-91
2022/12/03 06:22:22;;;;;;;3.75;2.90;;;;;;;16.79;34.88;102454.22;4954501;28;20088;-91
2022/12/03 06:24:49;;;;;;;3.78;2.53;;;;;;;16.80;34.74;102460.44;4971057;28;20033;-91
2022/12/03 06:27:14;;;;;;;3.63;2.67;;;;;;;16.80;34.91;102458.59;4953694;28;20396;-91
2022/12/03 06:29:40;;;;;;;3.05;2.40;;;;;;;16.76;34.78;102459.97;4970950;28;20022;-91
2022/12/03 06:32:05;;;;;;;2.70;2.40;;;;;;;16.76;34.89;102445.63;4973197;28;20038;-90
2022/12/03 06:34:31;;;;;;;5.18;2.80;;;;;;;16.78;34.99;102454.38;4968869;28;20049;-91
2022/12/03 06:36:57;;;;;;;3.72;2.53;;;;;;;16.80;34.91;102455.91;4973260;28;20026;-91
2022/12/03 06:39:22;;;;;;;5.25;2.53;;;;;;;16.81;34.91;102454.03;4986147;28;20121;-91
2022/12/03 06:41:48;;;;;;;3.40;2.63;;;;;;;16.80;34.83;102446.94;4954079;28;20164;-91
2022/12/03 06:44:14;;;;;;;3.83;2.92;;;;;;;16.79;34.94;102445.28;4955154;28;20076;-91
2022/12/03 06:46:39;;;;;;;4.90;2.83;;;;;;;16.77;34.86;102441.91;4968492;28;20030;-91
2022/12/03 06:49:07;;;;;;;4.00;2.75;;;;;;;16.80;34.83;102441.53;4949493;28;20026;-91
2022/12/03 06:51:36;;;;;;;4.88;2.85;;;;;;;16.79;34.86;102445.28;4955534;28;20513;-91
2022/12/03 06:54:03;;;;;;;3.75;2.70;;;;;;;16.78;34.80;102435.47;4986795;28;20922;-91
2022/12/03 06:56:28;;;;;;;4.15;3.20;;;;;;;16.78;34.86;102439.03;4968703;28;20053;-90
2022/12/03 06:58:54;;;;;;;3.15;2.45;;;;;;;16.74;34.67;102429.59;4956672;28;20064;-91
2022/12/03 07:01:20;;;;;;;4.45;3.15;;;;;;;16.79;34.80;102439.88;4954380;28;20105;-90
2022/12/03 07:03:45;;;;;;;4.25;2.63;;;;;;;16.75;34.94;102428.59;4954045;28;20534;-90
2022/12/03 07:06:11;;;;;;;4.40;2.50;;;;;;;16.80;34.77;102430.75;4970271;28;20040;-90
2022/12/03 07:08:37;;;;;;;5.72;2.58;;;;;;;16.78;34.76;102427.38;4970935;28;20080;-91
2022/12/03 07:11:02;;;;;;;4.82;2.97;;;;;;;16.76;34.90;102424.03;4970366;28;20029;-91
2022/12/03 07:13:28;;;;;;;3.97;2.78;;;;;;;16.80;34.84;102430.75;4969972;28;20109;-91
2022/12/03 07:15:54;;;;;;;3.72;2.50;;;;;;;16.81;34.76;102427.88;4955930;28;20030;-91
2022/12/03 07:18:19;;;;;;;3.25;2.58;;;;;;;16.80;34.94;102433.44;4971311;28;20021;-91
2022/12/03 07:20:45;;;;;;;3.90;2.80;;;;;;;16.79;34.82;102429.91;4936120;28;20477;-91
2022/12/03 07:23:11;;;;;;;3.22;2.63;;;;;;;16.78;34.89;102430.09;4911521;28;20458;-91
2022/12/03 07:25:37;;;;;;;3.95;2.75;;;;;;;16.80;34.75;102428.91;4929928;28;20026;-91
2022/12/03 07:28:02;;;;;;;3.60;2.78;;;;;;;16.77;34.73;102420.31;4953737;28;20384;-91
2022/12/03 07:30:28;;;;;;;4.22;2.95;;;;;;;16.80;34.91;102428.91;4965233;28;20029;-90
2022/12/03 07:32:54;;;;;;;4.25;2.67;;;;;;;16.79;34.76;102434.47;4968738;28;20276;-91
2022/12/03 07:35:19;;;;;;;5.07;3.08;;;;;;;16.80;34.74;102430.75;4995018;28;20507;-91
2022/12/03 07:37:45;;;;;;;4.03;2.60;;;;;;;16.80;34.61;102438.84;4953565;28;20283;-91
2022/12/03 07:40:11;;;;;;;5.25;2.70;;;;;;;16.80;34.79;102436.13;4953149;28;20575;-90
2022/12/03 07:42:37;;;;;;;18.83;7.53;;;;;;;15.74;27.23;102441.78;4968980;28;20105;-87
2022/12/03 07:45:03;;;;;;;14.10;7.38;;;;;;;15.73;30.21;102436.59;4953427;28;20030;-91
2022/12/03 07:47:29;;;;;;;15.98;7.78;;;;;;;15.93;31.54;102434.38;4972101;28;20062;-91
2022/12/03 07:49:55;;;;;;;14.88;7.28;;;;;;;16.10;32.11;102446.78;4954261;28;20040;-91
2022/12/03 07:52:20;;;;;;;14.82;5.70;;;;;;;16.20;33.10;102433.09;4965613;28;20582;-91
2022/12/03 07:54:46;;;;;;;13.57;5.20;;;;;;;16.32;33.17;102450.59;4966669;28;20377;-92
2022/12/03 07:57:11;;;;;;;9.68;4.53;;;;;;;16.36;33.29;102439.44;4950896;28;20123;-91
2022/12/03 07:59:37;;;;;;;11.23;5.30;;;;;;;16.43;33.13;102440.41;4968083;28;20428;-91
2022/12/03 08:02:03;;;;;;;9.07;4.65;;;;;;;16.39;33.34;102436.41;4950115;28;20129;-91
2022/12/03 08:04:28;;;;;;;7.38;4.45;;;;;;;16.45;33.39;102450.03;4983750;28;20113;-91
2022/12/03 08:06:54;;;;;;;9.85;4.90;;;;;;;16.45;33.31;102436.53;4950482;28;20122;-92
2022/12/03 08:09:20;;;;;;;8.55;4.45;;;;;;;16.49;33.33;102437.03;4952984;28;20168;-91
2022/12/03 08:11:48;;;;;;;8.25;4.28;;;;;;;16.49;33.58;102442.41;4988075;28;20120;-91
2022/12/03 08:14:16;;;;;;;11.88;4.20;;;;;;;16.50;33.65;102439.53;4958559;28;20341;-92
2022/12/03 08:16:43;;;;;;;7.75;4.00;;;;;;;16.51;33.58;102443.91;4953421;28;20018;-91
2022/12/03 08:19:10;;;;;;;7.28;4.13;;;;;;;16.52;33.55;102445.59;4951783;28;20049;-92
2022/12/03 08:21:36;;;;;;;6.28;3.63;;;;;;;16.48;33.63;102432.63;4969595;28;20026;-91
2022/12/03 08:24:13;;;;;;;7.18;4.68;;;;;;;16.53;33.83;102441.03;4955310;28;20372;-91
2022/12/03 08:26:39;;;;;;;7.05;3.95;;;;;;;16.49;33.77;102428.94;4980388;28;20473;-92
2022/12/03 08:29:09;;;;;;;6.32;3.60;;;;;;;16.55;33.71;102441.69;4961450;28;20179;-92
2022/12/03 08:31:34;;;;;;;4.95;3.63;;;;;;;16.55;33.90;102433.59;4952410;28;20042;-92
2022/12/03 08:34:20;;;;;;;4.85;3.45;;;;;;;16.52;33.85;102429.41;4952343;28;20028;-91
2022/12/03 08:36:49;;;;;;;8.07;3.70;;;;;;;16.56;34.21;102435.28;4952136;28;20037;-91
2022/12/03 08:39:30;;;;;;;5.90;3.22;;;;;;;16.59;33.91;102434.09;4981463;28;20042;-91
2022/12/03 08:44:53;;;;;;;5.25;3.58;;;;;;;16.58;34.01;102427.03;4984475;28;20100;-91
2022/12/03 08:47:20;;;;;;;6.53;3.28;;;;;;;16.57;34.16;102425.31;4990958;28;20077;-91
2022/12/03 08:49:57;;;;;;;5.95;3.38;;;;;;;16.59;34.37;102425.97;4967148;28;20030;-91
2022/12/03 08:52:29;;;;;;;6.55;3.30;;;;;;;16.59;34.15;102421.44;4968493;28;20149;-91
2022/12/03 08:54:56;;;;;;;7.72;3.70;;;;;;;16.60;34.22;102420.41;4961493;28;20030;-92
2022/12/03 08:57:32;;;;;;;5.82;3.50;;;;;;;16.59;34.27;102418.75;4950633;28;20971;-92
2022/12/03 09:00:00;;;;;;;4.18;2.70;;;;;;;16.60;34.04;102420.41;4953525;28;20127;-91
2022/12/03 09:02:34;;;;;;;5.35;3.15;;;;;;;16.58;34.26;102414.34;4967833;28;20832;-92
2022/12/03 09:05:14;;;;;;;5.85;3.35;;;;;;;16.60;34.52;102414.19;4945551;28;20125;-92
2022/12/03 09:07:40;;;;;;;6.10;3.05;;;;;;;16.63;34.41;102417.38;4971159;28;20021;-91
2022/12/03 09:10:07;;;;;;;7.50;3.70;;;;;;;16.61;34.31;102414.00;4968426;28;20529;-91
2022/12/03 09:12:32;;;;;;;5.47;3.40;;;;;;;16.59;34.42;102407.94;4968897;28;20037;-91
2022/12/03 09:14:58;;;;;;;5.13;3.60;;;;;;;16.63;34.32;102406.56;4969660;28;20118;-92
2022/12/03 09:17:23;;;;;;;5.32;3.63;;;;;;;16.62;34.51;102410.28;4969585;28;20694;-91
2022/12/03 09:19:49;;;;;;;4.45;3.05;;;;;;;16.63;34.43;102406.56;4968820;28;20026;-92
2022/12/03 09:22:16;;;;;;;5.20;3.55;;;;;;;16.66;34.67;102413.44;4967530;28;20127;-92
2022/12/03 09:24:42;;;;;;;5.38;2.97;;;;;;;16.64;34.55;102410.97;4964743;28;20034;-91
2022/12/03 09:27:07;;;;;;;4.43;2.78;;;;;;;16.65;34.56;102411.78;4948027;28;20030;-91
2022/12/03 09:29:33;;;;;;;6.47;3.60;;;;;;;16.61;34.60;102408.59;4969873;28;20022;-91
2022/12/03 09:31:58;;;;;;;4.90;3.13;;;;;;;16.67;34.53;102409.75;4954129;28;20032;-92
2022/12/03 09:34:24;;;;;;;4.82;2.90;;;;;;;16.64;34.56;102404.69;4984044;28;20405;-91
2022/12/03 09:36:50;;;;;;;6.38;3.13;;;;;;;16.67;34.54;102407.88;4967184;28;20037;-92
2022/12/03 09:39:16;;;;;;;4.70;3.17;;;;;;;16.66;34.57;102408.91;4967812;28;20030;-91
2022/12/03 09:41:42;;;;;;;4.53;3.40;;;;;;;16.67;34.58;102402.47;4970521;28;20030;-91
2022/12/03 09:44:08;;;;;;;6.00;3.22;;;;;;;16.67;34.60;102396.25;4953346;28;20044;-91
2022/12/03 09:46:37;;;;;;;6.05;3.42;;;;;;;16.63;34.61;102394.94;4970669;28;20036;-91
2022/12/03 09:49:04;;;;;;;3.85;2.88;;;;;;;16.66;34.62;102398.13;4959501;28;20022;-91
2022/12/03 09:51:32;;;;;;;7.25;3.05;;;;;;;16.72;34.66;102407.34;4974534;28;20144;-91
2022/12/03 09:53:59;;;;;;;4.47;3.05;;;;;;;16.69;34.84;102402.31;4973989;28;20087;-91
2022/12/03 09:56:25;;;;;;;4.93;3.08;;;;;;;16.70;34.70;102399.44;4957907;28;20060;-91
2022/12/03 09:58:50;;;;;;;5.93;3.28;;;;;;;16.73;34.63;102408.19;4999835;28;20537;-91
2022/12/03 10:01:16;;;;;;;4.28;2.80;;;;;;;16.70;34.74;102394.03;4989843;28;20092;-91
2022/12/03 10:03:44;;;;;;;4.38;3.08;;;;;;;16.73;34.66;102402.78;4967346;28;20094;-91
2022/12/03 10:06:16;;;;;;;4.13;2.75;;;;;;;16.73;34.67;102403.63;4950534;28;20085;-92
2022/12/03 10:08:42;;;;;;;3.30;2.88;;;;;;;16.68;34.90;102395.25;4967971;28;20413;-91
2022/12/03 10:11:08;;;;;;;3.85;2.85;;;;;;;16.70;34.73;102399.44;4972579;28;20042;-91
2022/12/03 10:13:36;;;;;;;4.40;2.75;;;;;;;16.73;34.78;102392.84;4955856;28;20033;-91
2022/12/03 10:16:01;;;;;;;4.35;3.10;;;;;;;16.73;34.76;102394.69;4971715;28;20034;-91
2022/12/03 10:18:29;;;;;;;6.03;3.30;;;;;;;16.69;34.84;102391.50;4956375;28;20468;-91
2022/12/03 10:20:54;;;;;;;3.83;3.00;;;;;;;16.68;34.93;102390.66;4957351;28;20092;-91
2022/12/03 10:23:30;;;;;;;5.68;3.00;;;;;;;16.75;34.79;102395.34;4987432;28;20035;-91
2022/12/03 10:26:01;;;;;;;4.72;3.35;;;;;;;16.71;34.91;102389.44;4997891;28;20026;-91
2022/12/03 10:28:34;;;;;;;4.32;3.28;;;;;;;16.72;34.86;102383.03;4969916;28;20034;-91
2022/12/03 10:31:05;;;;;;;5.35;3.13;;;;;;;16.70;34.89;102380.53;4958452;28;20030;-92
2022/12/03 10:33:36;;;;;;;4.22;3.03;;;;;;;16.72;34.61;102385.75;4950208;28;20505;-91
2022/12/03 10:36:22;;;;;;;3.40;2.70;;;;;;;16.74;34.89;102380.16;4968336;28;20026;-92
2022/12/03 10:39:08;;;;;;;4.07;3.22;;;;;;;16.69;34.82;102369.91;4969397;28;20045;-91
2022/12/03 10:41:34;;;;;;;5.47;3.10;;;;;;;16.71;34.91;102384.91;4949336;28;20121;-91
2022/12/03 10:44:21;;;;;;;4.53;3.00;;;;;;;16.76;34.88;102378.13;4983596;28;20121;-91
2022/12/03 10:47:25;;;;;;;5.78;3.05;;;;;;;16.75;34.85;102379.13;4984676;28;20477;-91
2022/12/03 10:50:01;;;;;;;4.15;3.15;;;;;;;16.76;34.93;102380.81;4892737;29;20024;-91
2022/12/03 10:52:27;;;;;;;4.68;3.15;;;;;;;16.75;34.93;102369.19;4876972;29;20390;-92
2022/12/03 10:54:52;;;;;;;4.07;3.03;;;;;;;16.75;34.86;102371.03;4920599;28;20232;-91
2022/12/03 10:57:18;;;;;;;4.15;2.83;;;;;;;16.71;34.69;102366.03;4961812;28;20498;-91
2022/12/03 10:59:44;;;;;;;4.18;3.03;;;;;;;16.76;34.92;102370.03;4951443;28;20137;-91
2022/12/03 11:02:17;;;;;;;5.50;3.50;;;;;;;16.75;34.90;102368.34;4951358;28;20375;-91
2022/12/03 11:04:43;;;;;;;4.83;3.50;;;;;;;16.74;34.81;102366.66;4943511;28;20031;-91
2022/12/03 11:07:17;;;;;;;4.63;3.25;;;;;;;16.74;34.94;102363.97;4957059;28;20282;-91
2022/12/03 11:09:47;;;;;;;4.72;2.97;;;;;;;16.75;34.83;102360.22;4984173;28;20512;-91
2022/12/03 11:12:21;;;;;;;4.20;2.75;;;;;;;16.75;35.01;102361.09;4939445;28;20640;-91
2022/12/03 11:14:50;;;;;;;4.10;2.88;;;;;;;16.76;34.86;102365.47;4964150;28;20027;-92
2022/12/03 11:17:38;;;;;;;3.70;2.70;;;;;;;16.78;35.07;102362.59;4976629;28;20034;-91
2022/12/03 11:20:08;;;;;;;3.38;2.83;;;;;;;16.77;34.92;102358.22;4984932;28;20084;-91
2022/12/03 11:22:42;;;;;;;4.43;3.30;;;;;;;16.79;34.98;102348.06;4950700;28;20031;-92
2022/12/03 11:25:23;;;;;;;6.07;3.90;;;;;;;16.77;34.93;102344.72;4975631;28;20118;-91
2022/12/03 11:28:11;;;;;;;4.88;3.25;;;;;;;16.78;35.01;102344.53;4977629;28;20489;-91
2022/12/03 11:30:49;;;;;;;4.45;3.00;;;;;;;16.77;35.01;102344.72;4975736;28;20030;-91
2022/12/03 11:33:29;;;;;;;3.65;3.08;;;;;;;16.75;34.94;102341.34;5000267;28;20408;-92
2022/12/03 11:36:08;;;;;;;4.95;3.20;;;;;;;16.73;35.13;102332.59;4948508;28;20031;-92
2022/12/03 11:38:39;;;;;;;4.63;3.00;;;;;;;16.77;35.10;102328.53;4966690;28;20377;-91
2022/12/03 11:41:17;;;;;;;4.07;2.78;;;;;;;16.77;35.04;102333.91;4969462;28;20023;-91
2022/12/03 11:43:51;;;;;;;3.90;3.05;;;;;;;16.79;34.99;102338.09;4971177;28;20025;-91
2022/12/03 11:46:44;;;;;;;4.78;3.00;;;;;;;16.77;34.93;102329.34;4973747;28;20237;-91